createdAt,value
2017-01-14T00:00:53.001Z,995.77
2017-01-14T00:02:02.333Z,995.71
2017-01-14T00:03:11.433Z,995.77
2017-01-14T00:04:20.520Z,995.72
2017-01-14T00:05:30.036Z,995.65
2017-01-14T00:06:39.008Z,995.7
2017-01-14T00:07:47.999Z,995.68
2017-01-14T00:08:57.074Z,995.69
2017-01-14T00:10:06.375Z,995.68
2017-01-14T00:11:15.564Z,995.65
2017-01-14T00:12:25.255Z,995.66
2017-01-14T00:13:34.191Z,995.64
2017-01-14T00:14:43.117Z,995.57
2017-01-14T00:15:52.081Z,995.59
2017-01-14T00:17:01.202Z,995.56
2017-01-14T00:18:10.163Z,995.52
2017-01-14T00:19:21.127Z,995.5
2017-01-14T00:20:30.218Z,995.51
2017-01-14T00:21:39.143Z,995.5
2017-01-14T00:22:48.080Z,995.45
2017-01-14T00:23:58.124Z,995.45
2017-01-14T00:25:07.061Z,995.43
2017-01-14T00:26:16.023Z,995.39
2017-01-14T00:27:24.991Z,995.4
2017-01-14T00:28:33.943Z,995.37
2017-01-14T00:29:42.940Z,995.35
2017-01-14T00:30:51.855Z,995.34
2017-01-14T00:32:00.780Z,995.34
2017-01-14T00:33:09.753Z,995.3
2017-01-14T00:34:18.692Z,995.29
2017-01-14T00:35:27.644Z,995.24
2017-01-14T00:36:36.575Z,995.24
2017-01-14T00:37:45.506Z,995.23
2017-01-14T00:38:54.500Z,995.28
2017-01-14T00:40:03.465Z,995.25
2017-01-14T00:41:12.407Z,995.21
2017-01-14T00:42:21.324Z,995.21
2017-01-14T00:43:30.252Z,995.17
2017-01-14T00:44:39.183Z,995.15
2017-01-14T00:45:48.118Z,995.15
2017-01-14T00:46:57.056Z,995.14
2017-01-14T00:48:05.986Z,995.16
2017-01-14T00:49:14.913Z,995.11
2017-01-14T00:50:23.831Z,995.11
2017-01-14T00:51:32.829Z,995.09
2017-01-14T00:52:41.770Z,995.05
2017-01-14T00:53:50.704Z,995.12
2017-01-14T00:54:59.639Z,995.04
2017-01-14T00:56:08.559Z,995.1
2017-01-14T00:57:17.491Z,995.09
2017-01-14T00:58:26.419Z,995.1
2017-01-14T00:59:35.353Z,995.06
2017-01-14T01:00:44.277Z,995.1
2017-01-14T01:01:53.212Z,995.11
2017-01-14T01:03:02.142Z,995.04
2017-01-14T01:04:11.082Z,995.08
2017-01-14T01:05:20.018Z,995.06
2017-01-14T01:06:28.946Z,995.1
2017-01-14T01:07:37.881Z,995.04
2017-01-14T01:08:46.816Z,995.08
2017-01-14T01:09:55.733Z,995.01
2017-01-14T01:11:04.670Z,995.01
2017-01-14T01:12:13.601Z,995.03
2017-01-14T01:13:22.537Z,994.95
2017-01-14T01:14:31.457Z,994.95
2017-01-14T01:15:40.397Z,994.92
2017-01-14T01:16:49.322Z,994.92
2017-01-14T01:17:58.250Z,994.97
2017-01-14T01:19:07.170Z,994.94
2017-01-14T01:20:16.105Z,994.9
2017-01-14T01:21:25.029Z,994.89
2017-01-14T01:22:33.962Z,994.85
2017-01-14T01:23:42.892Z,994.84
2017-01-14T01:24:51.829Z,994.83
2017-01-14T01:26:00.770Z,994.84
2017-01-14T01:27:09.695Z,994.78
2017-01-14T01:28:18.617Z,994.81
2017-01-14T01:29:27.555Z,994.79
2017-01-14T01:30:36.482Z,994.81
2017-01-14T01:31:45.392Z,994.79
2017-01-14T01:32:54.325Z,994.77
2017-01-14T01:34:03.249Z,994.78
2017-01-14T01:35:12.177Z,994.76
2017-01-14T01:36:21.102Z,994.75
2017-01-14T01:37:30.024Z,994.77
2017-01-14T01:38:38.946Z,994.74
2017-01-14T01:39:47.875Z,994.76
2017-01-14T01:40:56.809Z,994.73
2017-01-14T01:42:05.730Z,994.76
2017-01-14T01:43:14.659Z,994.69
2017-01-14T01:44:23.632Z,994.69
2017-01-14T01:45:32.613Z,994.71
2017-01-14T01:46:41.549Z,994.69
2017-01-14T01:47:50.481Z,994.67
2017-01-14T01:48:59.405Z,994.65
2017-01-14T01:50:08.352Z,994.63
2017-01-14T01:51:17.277Z,994.6
2017-01-14T01:52:26.209Z,994.57
2017-01-14T01:53:35.292Z,994.56
2017-01-14T01:54:44.247Z,994.56
2017-01-14T01:55:53.183Z,994.52
2017-01-14T01:57:02.109Z,994.53
2017-01-14T01:58:11.039Z,994.56
2017-01-14T01:59:19.963Z,994.54
2017-01-14T02:00:28.892Z,994.55
2017-01-14T02:01:37.816Z,994.53
2017-01-14T02:02:46.752Z,994.48
2017-01-14T02:03:55.682Z,994.44
2017-01-14T02:05:04.608Z,994.44
2017-01-14T02:06:13.542Z,994.44
2017-01-14T02:07:22.468Z,994.4
2017-01-14T02:08:31.390Z,994.39
2017-01-14T02:09:40.316Z,994.36
2017-01-14T02:10:49.241Z,994.35
2017-01-14T02:11:58.164Z,994.32
2017-01-14T02:13:07.093Z,994.3
2017-01-14T02:14:16.028Z,994.28
2017-01-14T02:15:25.083Z,994.25
2017-01-14T02:16:34.020Z,994.24
2017-01-14T02:17:42.936Z,994.22
2017-01-14T02:18:51.863Z,994.22
2017-01-14T02:20:00.789Z,994.24
2017-01-14T02:21:09.726Z,994.19
2017-01-14T02:22:18.662Z,994.19
2017-01-14T02:23:27.586Z,994.2
2017-01-14T02:24:36.496Z,994.17
2017-01-14T02:25:45.421Z,994.21
2017-01-14T02:26:54.347Z,994.15
2017-01-14T02:28:03.279Z,994.17
2017-01-14T02:29:12.212Z,994.16
2017-01-14T02:30:21.138Z,994.19
2017-01-14T02:31:30.048Z,994.13
2017-01-14T02:32:38.982Z,994.13
2017-01-14T02:33:47.922Z,994.14
2017-01-14T02:34:56.853Z,994.12
2017-01-14T02:36:05.800Z,994.12
2017-01-14T02:37:14.716Z,994.12
2017-01-14T02:38:23.640Z,994.07
2017-01-14T02:39:32.567Z,994.08
2017-01-14T02:40:41.499Z,994.02
2017-01-14T02:41:50.416Z,994.04
2017-01-14T02:42:59.334Z,994.02
2017-01-14T02:44:08.258Z,994.01
2017-01-14T02:45:17.192Z,993.96
2017-01-14T02:46:26.121Z,994.02
2017-01-14T02:47:35.039Z,994.02
2017-01-14T02:48:43.964Z,994.01
2017-01-14T02:49:52.887Z,994.05
2017-01-14T02:51:01.819Z,994.06
2017-01-14T02:52:10.738Z,994.05
2017-01-14T02:53:19.660Z,994.07
2017-01-14T02:54:28.580Z,994.05
2017-01-14T02:55:37.503Z,994.06
2017-01-14T02:56:46.434Z,994.06
2017-01-14T02:57:55.360Z,994.02
2017-01-14T02:59:04.278Z,993.99
2017-01-14T03:00:13.204Z,993.99
2017-01-14T03:01:22.136Z,993.93
2017-01-14T03:02:31.088Z,993.93
2017-01-14T03:03:40.016Z,993.95
2017-01-14T03:04:48.954Z,993.93
2017-01-14T03:05:57.873Z,993.97
2017-01-14T03:07:06.830Z,993.92
2017-01-14T03:08:15.771Z,993.93
2017-01-14T03:09:24.699Z,993.89
2017-01-14T03:10:33.622Z,993.89
2017-01-14T03:11:42.548Z,993.88
2017-01-14T03:12:51.480Z,993.89
2017-01-14T03:14:00.420Z,993.93
2017-01-14T03:15:09.356Z,993.96
2017-01-14T03:16:18.274Z,993.96
2017-01-14T03:17:27.204Z,993.99
2017-01-14T03:18:36.135Z,993.98
2017-01-14T03:19:45.054Z,993.98
2017-01-14T03:20:53.972Z,993.97
2017-01-14T03:22:02.903Z,993.95
2017-01-14T03:23:11.826Z,993.95
2017-01-14T03:24:20.740Z,993.96
2017-01-14T03:25:29.673Z,993.98
2017-01-14T03:26:39.537Z,993.98
2017-01-14T03:27:48.461Z,993.96
2017-01-14T03:28:57.384Z,993.97
2017-01-14T03:30:06.310Z,993.98
2017-01-14T03:31:15.227Z,993.97
2017-01-14T03:32:24.145Z,993.96
2017-01-14T03:33:33.072Z,993.93
2017-01-14T03:34:42.011Z,993.9
2017-01-14T03:35:50.946Z,993.87
2017-01-14T03:36:59.856Z,993.89
2017-01-14T03:38:08.786Z,993.89
2017-01-14T03:39:17.720Z,993.88
2017-01-14T03:40:26.646Z,993.82
2017-01-14T03:41:35.565Z,993.85
2017-01-14T03:42:44.496Z,993.83
2017-01-14T03:43:53.415Z,993.85
2017-01-14T03:45:02.345Z,993.83
2017-01-14T03:46:11.282Z,993.84
2017-01-14T03:47:20.206Z,993.85
2017-01-14T03:48:29.169Z,993.88
2017-01-14T03:49:38.082Z,993.84
2017-01-14T03:50:47.015Z,993.81
2017-01-14T03:51:55.929Z,993.82
2017-01-14T03:53:04.858Z,993.83
2017-01-14T03:54:13.779Z,993.78
2017-01-14T03:55:22.710Z,993.79
2017-01-14T03:56:31.631Z,993.76
2017-01-14T03:57:40.545Z,993.74
2017-01-14T03:58:49.471Z,993.72
2017-01-14T03:59:58.402Z,993.74
2017-01-14T04:01:07.320Z,993.68
2017-01-14T04:02:16.243Z,993.68
2017-01-14T04:03:25.190Z,993.68
2017-01-14T04:04:34.161Z,993.68
2017-01-14T04:05:43.078Z,993.68
2017-01-14T04:06:52.016Z,993.7
2017-01-14T04:08:01.665Z,993.71
2017-01-14T04:09:11.234Z,993.69
2017-01-14T04:10:20.158Z,993.76
2017-01-14T04:11:29.075Z,993.79
2017-01-14T04:12:38.017Z,993.79
2017-01-14T04:13:46.948Z,993.83
2017-01-14T04:14:55.863Z,993.87
2017-01-14T04:16:04.791Z,993.86
2017-01-14T04:17:13.714Z,993.89
2017-01-14T04:18:22.657Z,993.88
2017-01-14T04:19:31.578Z,993.88
2017-01-14T04:20:40.514Z,993.88
2017-01-14T04:21:49.424Z,993.84
2017-01-14T04:22:58.356Z,993.84
2017-01-14T04:24:07.292Z,993.9
2017-01-14T04:25:16.234Z,993.91
2017-01-14T04:26:25.162Z,993.95
2017-01-14T04:27:34.072Z,993.97
2017-01-14T04:28:43.005Z,993.98
2017-01-14T04:29:51.930Z,994
2017-01-14T04:31:00.854Z,994
2017-01-14T04:32:09.764Z,994.01
2017-01-14T04:33:18.682Z,993.98
2017-01-14T04:34:27.602Z,993.98
2017-01-14T04:35:36.524Z,993.92
2017-01-14T04:36:45.467Z,993.95
2017-01-14T04:37:54.385Z,993.94
2017-01-14T04:39:03.310Z,993.97
2017-01-14T04:40:12.229Z,993.97
2017-01-14T04:41:21.154Z,993.95
2017-01-14T04:42:30.073Z,993.99
2017-01-14T04:43:39.011Z,993.99
2017-01-14T04:44:47.932Z,993.99
2017-01-14T04:45:57.259Z,993.98
2017-01-14T04:47:06.192Z,994.03
2017-01-14T04:48:15.114Z,994.06
2017-01-14T04:49:24.031Z,994.1
2017-01-14T04:50:32.949Z,994.1
2017-01-14T04:51:41.880Z,994.11
2017-01-14T04:52:50.805Z,994.11
2017-01-14T04:53:59.725Z,994.12
2017-01-14T04:55:08.647Z,994.13
2017-01-14T04:56:17.562Z,994.14
2017-01-14T04:57:26.492Z,994.12
2017-01-14T04:58:35.421Z,994.13
2017-01-14T04:59:44.333Z,994.08
2017-01-14T05:00:53.255Z,994.09
2017-01-14T05:02:02.176Z,994.12
2017-01-14T05:03:11.099Z,994.12
2017-01-14T05:04:20.042Z,994.13
2017-01-14T05:05:28.972Z,994.15
2017-01-14T05:06:37.888Z,994.15
2017-01-14T05:07:46.809Z,994.15
2017-01-14T05:08:55.734Z,994.15
2017-01-14T05:10:04.664Z,994.14
2017-01-14T05:11:13.599Z,994.18
2017-01-14T05:12:22.514Z,994.2
2017-01-14T05:13:31.445Z,994.2
2017-01-14T05:14:40.355Z,994.19
2017-01-14T05:15:49.289Z,994.21
2017-01-14T05:16:58.218Z,994.22
2017-01-14T05:18:07.139Z,994.2
2017-01-14T05:19:16.065Z,994.2
2017-01-14T05:20:24.990Z,994.22
2017-01-14T05:21:33.904Z,994.23
2017-01-14T05:22:42.837Z,994.25
2017-01-14T05:23:51.931Z,994.3
2017-01-14T05:25:01.631Z,994.3
2017-01-14T05:26:10.611Z,994.28
2017-01-14T05:27:19.611Z,994.29
2017-01-14T05:28:28.578Z,994.31
2017-01-14T05:29:38.013Z,994.33
2017-01-14T05:30:47.128Z,994.37
2017-01-14T05:31:56.428Z,994.41
2017-01-14T05:33:05.643Z,994.44
2017-01-14T05:34:15.000Z,994.49
2017-01-14T05:35:24.291Z,994.51
2017-01-14T05:36:33.335Z,994.55
2017-01-14T05:37:42.761Z,994.55
2017-01-14T05:38:51.701Z,994.59
2017-01-14T05:40:00.787Z,994.63
2017-01-14T05:41:09.929Z,994.62
2017-01-14T05:42:19.303Z,994.6
2017-01-14T05:43:29.266Z,994.64
2017-01-14T05:44:38.651Z,994.66
2017-01-14T05:45:48.145Z,994.72
2017-01-14T05:46:57.509Z,994.74
2017-01-14T05:48:06.599Z,994.72
2017-01-14T05:49:15.994Z,994.76
2017-01-14T05:50:25.031Z,994.77
2017-01-14T05:51:34.793Z,994.8
2017-01-14T05:52:43.825Z,994.83
2017-01-14T05:53:53.047Z,994.92
2017-01-14T05:55:01.978Z,994.93
2017-01-14T05:56:10.992Z,994.93
2017-01-14T05:57:20.469Z,994.97
2017-01-14T05:58:29.482Z,994.98
2017-01-14T05:59:39.124Z,995.02
2017-01-14T06:00:48.626Z,995.05
2017-01-14T06:01:57.686Z,995.1
2017-01-14T06:03:07.313Z,995.13
2017-01-14T06:04:16.760Z,995.15
2017-01-14T06:05:25.695Z,995.19
2017-01-14T06:06:34.621Z,995.22
2017-01-14T06:07:44.163Z,995.22
2017-01-14T06:08:53.453Z,995.26
2017-01-14T06:10:02.573Z,995.28
2017-01-14T06:11:11.554Z,995.32
2017-01-14T06:12:20.467Z,995.33
2017-01-14T06:13:29.400Z,995.34
2017-01-14T06:14:38.368Z,995.37
2017-01-14T06:15:47.291Z,995.41
2017-01-14T06:16:56.215Z,995.39
2017-01-14T06:18:05.132Z,995.36
2017-01-14T06:19:14.091Z,995.38
2017-01-14T06:20:23.021Z,995.39
2017-01-14T06:21:31.947Z,995.4
2017-01-14T06:22:40.875Z,995.44
2017-01-14T06:23:49.796Z,995.47
2017-01-14T06:24:58.714Z,995.42
2017-01-14T06:26:07.641Z,995.46
2017-01-14T06:27:16.569Z,995.49
2017-01-14T06:28:25.586Z,995.5
2017-01-14T06:29:34.827Z,995.54
2017-01-14T06:30:44.306Z,995.57
2017-01-14T06:31:53.338Z,995.58
2017-01-14T06:33:02.844Z,995.63
2017-01-14T06:34:11.885Z,995.63
2017-01-14T06:35:21.110Z,995.68
2017-01-14T06:36:30.093Z,995.65
2017-01-14T06:37:39.033Z,995.68
2017-01-14T06:38:48.329Z,995.69
2017-01-14T06:39:57.401Z,995.71
2017-01-14T06:41:06.728Z,995.76
2017-01-14T06:42:15.679Z,995.8
2017-01-14T06:43:24.611Z,995.81
2017-01-14T06:44:33.563Z,995.83
2017-01-14T06:45:42.530Z,995.88
2017-01-14T06:46:51.466Z,995.94
2017-01-14T06:48:00.398Z,995.96
2017-01-14T06:49:09.363Z,995.99
2017-01-14T06:50:18.317Z,996
2017-01-14T06:51:27.286Z,996.03
2017-01-14T06:52:36.568Z,996.07
2017-01-14T06:53:45.673Z,996.08
2017-01-14T06:54:54.600Z,996.14
2017-01-14T06:56:03.555Z,996.17
2017-01-14T06:57:12.464Z,996.19
2017-01-14T06:58:22.887Z,996.23
2017-01-14T06:59:32.230Z,996.3
2017-01-14T07:00:41.180Z,996.29
2017-01-14T07:01:50.119Z,996.31
2017-01-14T07:02:59.113Z,996.37
2017-01-14T07:04:08.074Z,996.38
2017-01-14T07:05:16.985Z,996.38
2017-01-14T07:06:25.923Z,996.38
2017-01-14T07:07:34.833Z,996.48
2017-01-14T07:08:43.755Z,996.46
2017-01-14T07:09:52.677Z,996.52
2017-01-14T07:11:01.608Z,996.54
2017-01-14T07:12:10.546Z,996.56
2017-01-14T07:13:19.479Z,996.56
2017-01-14T07:14:28.405Z,996.58
2017-01-14T07:15:37.338Z,996.58
2017-01-14T07:16:46.279Z,996.61
2017-01-14T07:17:55.352Z,996.61
2017-01-14T07:19:04.507Z,996.64
2017-01-14T07:20:13.984Z,996.65
2017-01-14T07:21:22.903Z,996.69
2017-01-14T07:22:31.822Z,996.7
2017-01-14T07:23:40.752Z,996.76
2017-01-14T07:24:49.703Z,996.78
2017-01-14T07:25:58.615Z,996.84
2017-01-14T07:27:07.552Z,996.86
2017-01-14T07:28:16.482Z,996.92
2017-01-14T07:29:25.551Z,996.93
2017-01-14T07:30:34.467Z,996.97
2017-01-14T07:31:43.384Z,997
2017-01-14T07:32:52.311Z,997.03
2017-01-14T07:34:01.240Z,997.07
2017-01-14T07:35:10.195Z,997.12
2017-01-14T07:36:19.157Z,997.16
2017-01-14T07:37:28.082Z,997.16
2017-01-14T07:38:37.013Z,997.18
2017-01-14T07:39:45.992Z,997.21
2017-01-14T07:40:54.924Z,997.27
2017-01-14T07:42:04.268Z,997.33
2017-01-14T07:43:13.243Z,997.33
2017-01-14T07:44:22.595Z,997.36
2017-01-14T07:45:31.865Z,997.43
2017-01-14T07:46:40.804Z,997.46
2017-01-14T07:47:49.991Z,997.55
2017-01-14T07:48:59.088Z,997.53
2017-01-14T07:50:08.332Z,997.56
2017-01-14T07:51:17.641Z,997.62
2017-01-14T07:52:26.557Z,997.64
2017-01-14T07:53:35.484Z,997.66
2017-01-14T07:54:44.833Z,997.69
2017-01-14T07:55:53.794Z,997.69
2017-01-14T07:57:02.724Z,997.72
2017-01-14T07:58:11.652Z,997.68
2017-01-14T07:59:20.616Z,997.7
2017-01-14T08:00:29.634Z,997.72
2017-01-14T08:01:38.591Z,997.72
2017-01-14T08:02:47.621Z,997.72
2017-01-14T08:03:56.550Z,997.75
2017-01-14T08:05:05.717Z,997.75
2017-01-14T08:06:15.161Z,997.77
2017-01-14T08:07:24.277Z,997.83
2017-01-14T08:08:33.225Z,997.8
2017-01-14T08:09:42.155Z,997.85
2017-01-14T08:10:51.112Z,997.86
2017-01-14T08:12:00.035Z,997.87
2017-01-14T08:13:09.048Z,997.86
2017-01-14T08:14:18.029Z,997.96
2017-01-14T08:15:27.336Z,997.99
2017-01-14T08:16:36.260Z,998.06
2017-01-14T08:17:45.185Z,998.12
2017-01-14T08:18:54.120Z,998.1
2017-01-14T08:20:03.200Z,998.16
2017-01-14T08:21:12.356Z,998.2
2017-01-14T08:22:21.366Z,998.19
2017-01-14T08:23:30.426Z,998.23
2017-01-14T08:24:39.379Z,998.24
2017-01-14T08:25:48.387Z,998.31
2017-01-14T08:26:58.196Z,998.3
2017-01-14T08:28:07.137Z,998.3
2017-01-14T08:29:16.070Z,998.26
2017-01-14T08:30:25.000Z,998.32
2017-01-14T08:31:33.972Z,998.33
2017-01-14T08:32:43.773Z,998.36
2017-01-14T08:33:53.147Z,998.42
2017-01-14T08:35:02.099Z,998.46
2017-01-14T08:36:11.068Z,998.47
2017-01-14T08:37:20.023Z,998.53
2017-01-14T08:38:28.964Z,998.6
2017-01-14T08:39:37.901Z,998.61
2017-01-14T08:40:46.820Z,998.66
2017-01-14T08:41:55.799Z,998.66
2017-01-14T08:43:04.770Z,998.67
2017-01-14T08:44:13.711Z,998.71
2017-01-14T08:45:23.183Z,998.75
2017-01-14T08:46:32.344Z,998.75
2017-01-14T08:47:41.794Z,998.77
2017-01-14T08:48:50.736Z,998.8
2017-01-14T08:49:59.721Z,998.84
2017-01-14T08:51:08.701Z,998.88
2017-01-14T08:52:18.246Z,998.88
2017-01-14T08:53:27.591Z,998.89
2017-01-14T08:54:36.549Z,998.91
2017-01-14T08:55:45.913Z,998.97
2017-01-14T08:56:54.887Z,998.95
2017-01-14T08:58:04.065Z,999.02
2017-01-14T08:59:12.986Z,999.05
2017-01-14T09:00:22.101Z,999.07
2017-01-14T09:01:31.330Z,999.15
2017-01-14T09:02:40.258Z,999.15
2017-01-14T09:03:49.329Z,999.18
2017-01-14T09:04:58.413Z,999.24
2017-01-14T09:06:07.397Z,999.26
2017-01-14T09:07:16.369Z,999.3
2017-01-14T09:08:25.302Z,999.33
2017-01-14T09:09:34.322Z,999.37
2017-01-14T09:10:43.255Z,999.38
2017-01-14T09:11:52.169Z,999.39
2017-01-14T09:13:01.308Z,999.4
2017-01-14T09:14:10.324Z,999.44
2017-01-14T09:15:19.299Z,999.42
2017-01-14T09:16:28.242Z,999.47
2017-01-14T09:17:37.254Z,999.5
2017-01-14T09:18:46.534Z,999.53
2017-01-14T09:19:55.459Z,999.54
2017-01-14T09:21:04.378Z,999.58
2017-01-14T09:22:13.297Z,999.6
2017-01-14T09:23:22.234Z,999.63
2017-01-14T09:24:31.165Z,999.59
2017-01-14T09:25:40.105Z,999.64
2017-01-14T09:26:49.044Z,999.63
2017-01-14T09:27:58.024Z,999.69
2017-01-14T09:29:06.942Z,999.69
2017-01-14T09:30:15.861Z,999.71
2017-01-14T09:31:25.105Z,999.77
2017-01-14T09:32:34.418Z,999.8
2017-01-14T09:33:43.348Z,999.81
2017-01-14T09:34:52.269Z,999.83
2017-01-14T09:36:01.200Z,999.86
2017-01-14T09:37:10.204Z,999.88
2017-01-14T09:38:19.134Z,999.94
2017-01-14T09:39:28.080Z,999.96
2017-01-14T09:40:37.007Z,999.96
2017-01-14T09:41:45.928Z,999.98
2017-01-14T09:42:54.859Z,1000.01
2017-01-14T09:44:03.778Z,1000.02
2017-01-14T09:45:12.697Z,999.98
2017-01-14T09:46:21.647Z,1000.06
2017-01-14T09:47:30.580Z,1000.06
2017-01-14T09:48:39.499Z,1000.08
2017-01-14T09:49:48.434Z,1000.08
2017-01-14T09:50:57.346Z,1000.1
2017-01-14T09:52:06.275Z,1000.12
2017-01-14T09:53:15.206Z,1000.16
2017-01-14T09:54:24.117Z,1000.14
2017-01-14T09:55:33.035Z,1000.17
2017-01-14T09:56:41.970Z,1000.23
2017-01-14T09:57:50.895Z,1000.23
2017-01-14T09:58:59.808Z,1000.23
2017-01-14T10:00:08.837Z,1000.29
2017-01-14T10:01:18.159Z,1000.28
2017-01-14T10:02:27.095Z,1000.27
2017-01-14T10:03:36.089Z,1000.28
2017-01-14T10:04:45.036Z,1000.3
2017-01-14T10:05:53.974Z,1000.3
2017-01-14T10:07:02.899Z,1000.31
2017-01-14T10:08:11.825Z,1000.27
2017-01-14T10:09:21.204Z,1000.29
2017-01-14T10:10:30.266Z,1000.31
2017-01-14T10:11:39.597Z,1000.28
2017-01-14T10:12:49.702Z,1000.26
2017-01-14T10:13:58.698Z,1000.28
2017-01-14T10:15:07.660Z,1000.25
2017-01-14T10:16:16.595Z,1000.32
2017-01-14T10:17:25.523Z,1000.28
2017-01-14T10:18:34.446Z,1000.35
2017-01-14T10:19:43.395Z,1000.36
2017-01-14T10:20:52.313Z,1000.35
2017-01-14T10:22:01.246Z,1000.38
2017-01-14T10:23:10.226Z,1000.36
2017-01-14T10:24:19.156Z,1000.37
2017-01-14T10:25:28.335Z,1000.39
2017-01-14T10:26:37.262Z,1000.45
2017-01-14T10:27:46.177Z,1000.49
2017-01-14T10:28:55.126Z,1000.54
2017-01-14T10:30:04.062Z,1000.53
2017-01-14T10:31:12.988Z,1000.57
2017-01-14T10:32:21.905Z,1000.59
2017-01-14T10:33:30.936Z,1000.59
2017-01-14T10:34:39.864Z,1000.7
2017-01-14T10:35:48.929Z,1000.72
2017-01-14T10:36:57.863Z,1000.7
2017-01-14T10:38:07.065Z,1000.74
2017-01-14T10:39:16.061Z,1000.74
2017-01-14T10:40:26.039Z,1000.71
2017-01-14T10:41:35.052Z,1000.69
2017-01-14T10:42:44.047Z,1000.72
2017-01-14T10:43:54.068Z,1000.68
2017-01-14T10:45:03.756Z,1000.71
2017-01-14T10:46:12.673Z,1000.73
2017-01-14T10:47:21.611Z,1000.71
2017-01-14T10:48:30.587Z,1000.77
2017-01-14T10:49:40.637Z,1000.78
2017-01-14T10:50:49.736Z,1000.75
2017-01-14T10:51:58.981Z,1000.84
2017-01-14T10:53:08.123Z,1000.83
2017-01-14T10:54:17.084Z,1000.77
2017-01-14T10:55:26.004Z,1000.84
2017-01-14T10:56:34.932Z,1000.87
2017-01-14T10:57:43.852Z,1000.87
2017-01-14T10:58:52.780Z,1000.87
2017-01-14T11:00:01.708Z,1000.89
2017-01-14T11:01:10.766Z,1000.92
2017-01-14T11:02:20.081Z,1000.94
2017-01-14T11:03:30.383Z,1001.02
2017-01-14T11:04:39.317Z,1001.06
2017-01-14T11:05:48.368Z,1001.07
2017-01-14T11:06:57.343Z,1001.05
2017-01-14T11:08:07.254Z,1001.05
2017-01-14T11:09:16.185Z,1001.03
2017-01-14T11:10:25.144Z,1001.04
2017-01-14T11:11:34.091Z,1001.02
2017-01-14T11:12:43.016Z,1001.06
2017-01-14T11:13:51.979Z,1001.08
2017-01-14T11:15:00.915Z,1001.08
2017-01-14T11:16:09.857Z,1001.15
2017-01-14T11:17:18.830Z,1001.22
2017-01-14T11:18:28.104Z,1001.21
2017-01-14T11:19:37.284Z,1001.24
2017-01-14T11:20:46.223Z,1001.27
2017-01-14T11:21:55.203Z,1001.24
2017-01-14T11:23:05.255Z,1001.25
2017-01-14T11:24:14.417Z,1001.26
2017-01-14T11:25:24.153Z,1001.22
2017-01-14T11:26:33.735Z,1001.23
2017-01-14T11:27:43.936Z,1001.19
2017-01-14T11:28:55.538Z,1001.23
2017-01-14T11:30:06.061Z,1001.19
2017-01-14T11:31:15.926Z,1001.19
2017-01-14T11:32:24.864Z,1001.26
2017-01-14T11:33:33.802Z,1001.22
2017-01-14T11:34:42.739Z,1001.22
2017-01-14T11:35:51.684Z,1001.21
2017-01-14T11:37:00.607Z,1001.19
2017-01-14T11:38:09.570Z,1001.21
2017-01-14T11:39:18.493Z,1001.22
2017-01-14T11:40:27.445Z,1001.26
2017-01-14T11:41:37.784Z,1001.19
2017-01-14T11:42:47.767Z,1001.22
2017-01-14T11:43:57.446Z,1001.24
2017-01-14T11:45:06.387Z,1001.29
2017-01-14T11:46:15.330Z,1001.32
2017-01-14T11:47:24.691Z,1001.34
2017-01-14T11:48:33.663Z,1001.31
2017-01-14T11:49:42.605Z,1001.35
2017-01-14T11:50:51.539Z,1001.39
2017-01-14T11:52:00.465Z,1001.4
2017-01-14T11:53:09.436Z,1001.4
2017-01-14T11:54:20.450Z,1001.41
2017-01-14T11:55:29.373Z,1001.42
2017-01-14T11:56:38.329Z,1001.41
2017-01-14T11:57:47.263Z,1001.4
2017-01-14T11:58:56.188Z,1001.43
2017-01-14T12:00:05.259Z,1001.42
2017-01-14T12:01:14.197Z,1001.44
2017-01-14T12:02:23.578Z,1001.44
2017-01-14T12:03:34.514Z,1001.47
2017-01-14T12:04:43.448Z,1001.46
2017-01-14T12:05:52.373Z,1001.46
2017-01-14T12:07:01.317Z,1001.52
2017-01-14T12:08:10.277Z,1001.5
2017-01-14T12:09:19.292Z,1001.55
2017-01-14T12:10:28.257Z,1001.55
2017-01-14T12:11:37.174Z,1001.5
2017-01-14T12:12:46.099Z,1001.42
2017-01-14T12:13:55.038Z,1001.55
2017-01-14T12:15:04.381Z,1001.47
2017-01-14T12:16:13.303Z,1001.48
2017-01-14T12:17:22.224Z,1001.44
2017-01-14T12:18:31.151Z,1001.42
2017-01-14T12:19:40.094Z,1001.53
2017-01-14T12:20:49.026Z,1001.48
2017-01-14T12:21:58.034Z,1001.49
2017-01-14T12:23:07.607Z,1001.48
2017-01-14T12:24:16.558Z,1001.5
2017-01-14T12:25:27.717Z,1001.52
2017-01-14T12:26:36.782Z,1001.54
2017-01-14T12:27:47.203Z,1001.52
2017-01-14T12:28:56.180Z,1001.53
2017-01-14T12:30:05.140Z,1001.62
2017-01-14T12:31:14.235Z,1001.56
2017-01-14T12:32:24.232Z,1001.62
2017-01-14T12:33:33.184Z,1001.63
2017-01-14T12:34:42.756Z,1001.59
2017-01-14T12:35:51.686Z,1001.64
2017-01-14T12:37:00.811Z,1001.64
2017-01-14T12:38:10.295Z,1001.65
2017-01-14T12:39:19.525Z,1001.6
2017-01-14T12:40:28.463Z,1001.63
2017-01-14T12:41:37.420Z,1001.61
2017-01-14T12:42:46.447Z,1001.61
2017-01-14T12:43:56.282Z,1001.64
2017-01-14T12:45:05.227Z,1001.69
2017-01-14T12:46:14.152Z,1001.73
2017-01-14T12:47:23.081Z,1001.65
2017-01-14T12:48:32.008Z,1001.74
2017-01-14T12:49:40.942Z,1001.69
2017-01-14T12:50:49.893Z,1001.66
2017-01-14T12:51:58.822Z,1001.7
2017-01-14T12:53:07.751Z,1001.68
2017-01-14T12:54:16.678Z,1001.72
2017-01-14T12:55:25.634Z,1001.67
2017-01-14T12:56:34.555Z,1001.71
2017-01-14T12:57:43.545Z,1001.7
2017-01-14T12:58:52.676Z,1001.69
2017-01-14T13:00:02.017Z,1001.75
2017-01-14T13:01:10.958Z,1001.76
2017-01-14T13:02:21.159Z,1001.79
2017-01-14T13:03:30.760Z,1001.79
2017-01-14T13:04:40.946Z,1001.83
2017-01-14T13:05:50.289Z,1001.77
2017-01-14T13:06:59.290Z,1001.75
2017-01-14T13:08:08.401Z,1001.86
2017-01-14T13:09:17.576Z,1001.82
2017-01-14T13:10:26.566Z,1001.9
2017-01-14T13:11:35.765Z,1001.85
2017-01-14T13:12:44.762Z,1001.89
2017-01-14T13:13:53.878Z,1001.9
2017-01-14T13:15:03.981Z,1001.91
2017-01-14T13:16:13.674Z,1001.92
2017-01-14T13:17:22.799Z,1001.91
2017-01-14T13:18:31.839Z,1001.99
2017-01-14T13:19:41.179Z,1001.96
2017-01-14T13:20:50.111Z,1001.96
2017-01-14T13:21:59.336Z,1001.98
2017-01-14T13:23:08.416Z,1001.97
2017-01-14T13:24:17.858Z,1002.01
2017-01-14T13:25:26.897Z,1002
2017-01-14T13:26:35.854Z,1002.03
2017-01-14T13:27:44.939Z,1002.05
2017-01-14T13:28:53.932Z,1002.06
2017-01-14T13:30:02.869Z,1002.08
2017-01-14T13:31:11.854Z,1002.07
2017-01-14T13:32:20.835Z,1002.15
2017-01-14T13:33:29.805Z,1002.13
2017-01-14T13:34:38.752Z,1002.17
2017-01-14T13:35:47.781Z,1002.14
2017-01-14T13:36:56.744Z,1002.16
2017-01-14T13:38:05.750Z,1002.19
2017-01-14T13:39:15.142Z,1002.16
2017-01-14T13:40:24.075Z,1002.19
2017-01-14T13:41:33.011Z,1002.25
2017-01-14T13:42:43.866Z,1002.29
2017-01-14T13:43:59.195Z,1002.24
2017-01-14T13:45:08.139Z,1002.28
2017-01-14T13:46:17.064Z,1002.34
2017-01-14T13:47:26.003Z,1002.27
2017-01-14T13:48:34.973Z,1002.29
2017-01-14T13:49:44.286Z,1002.31
2017-01-14T13:50:53.244Z,1002.28
2017-01-14T13:52:02.377Z,1002.29
2017-01-14T13:53:11.798Z,1002.33
2017-01-14T13:54:20.733Z,1002.39
2017-01-14T13:55:30.616Z,1002.39
2017-01-14T13:56:39.543Z,1002.43
2017-01-14T13:57:48.633Z,1002.46
2017-01-14T13:58:58.104Z,1002.44
2017-01-14T14:00:07.193Z,1002.49
2017-01-14T14:01:16.252Z,1002.45
2017-01-14T14:02:25.189Z,1002.41
2017-01-14T14:03:34.296Z,1002.45
2017-01-14T14:04:43.404Z,1002.44
2017-01-14T14:05:52.365Z,1002.49
2017-01-14T14:07:01.292Z,1002.51
2017-01-14T14:08:11.036Z,1002.48
2017-01-14T14:09:19.981Z,1002.49
2017-01-14T14:10:28.934Z,1002.47
2017-01-14T14:11:37.897Z,1002.5
2017-01-14T14:12:46.868Z,1002.48
2017-01-14T14:13:55.795Z,1002.49
2017-01-14T14:15:04.797Z,1002.47
2017-01-14T14:16:14.259Z,1002.5